Pittsburgh, PA (15204)

5:47 AM EDT on April 24, 2017 (GMT -0400)
Elliott | | Change Station

Elev 1055 ft 40.45 °N, 80.04 °W | Updated 23 seconds ago

Partly Cloudy
Partly Cloudy
46.6 °F
Feels Like 45 °F
N
3.7
Wind Variable Wind from NE

Today
High -- | Low -- °F
--% Chance of Precip.
Yesterday
High -- | Low -- °F
Precip. -- in
Pressure 30.02 in
Visibility 10.0 miles
Clouds Scattered Clouds 25000 ft
Windchill 45 °F
Dew Point 37 °F
Humidity 70%
Rainfall 0.00 in
Snow Depth Not available.
6:28 AM 8:08 PM
Waning Crescent, 6% visible
METAR KPIT 240851Z 07005KT 10SM SCT250 07/01 A3000 RMK AO2 SLP166 T00720011 58010 $
Pressure 30.02 in
Visibility 10.0 miles
Clouds Scattered Clouds 25000 ft
Windchill 45 °F
Dew Point 37 °F
Humidity 70%
Rainfall 0.00 in
Snow Depth Not available.
6:28 AM 8:08 PM
Waning Crescent, 6% visible
METAR KPIT 240851Z 07005KT 10SM SCT250 07/01 A3000 RMK AO2 SLP166 T00720011 58010 $

Get Severe Weather Alerts

Thanks for signing up!

Be on the lookout for a verification email in your inbox.

You'll start receiving the daily forecast at 8 AM.

×

10-Day Weather Forecast

Almanac

Astronomy

Apr. 24, 2017 Rise Set
Actual Time
Civil Twilight
Nautical Twilight
Astronomical Twilight
Moon
Length of Visible Light
Length of Day
Tomorrow will be .
, % of the Moon is Illuminated

Today's Extremes

State Highs State Lows

Community

WunderPhotos

WunderBlog® & News

Nearby

Air Quality

  Air Quality AQ Index Pollutant
Not available.

Snow Depth

Station Depth Elevation

Earthquake Activity

City Distance Mag. Time & Date
Minimum magnitude displayed is 2.5.

Coastal Water Temperatures

Place Temperature

Stations

Nearby Weather Stations

Station Location Temp. Windchill Dew Point Humidity Wind Precip. Elev Updated Type
                   

Watches & Warnings

There are currently no watches in effect.